Time;durP1;ratioP1;P1;durP2;ratioP2;P2;SDS_P1;SDS_P2;PMS_P1;PMS_P2;Temp;Humidity;BMP_temperature;BMP_pressure;BME280_temperature;BME280_humidity;BME280_pressure;Samples;Min_cycle;Max_cycle;Signal;HPM_P1;HPM_P2
2022/11/14 00:02:05;;;;;;;;;;;10.90;89.10;;;;;;5053260;28;19943;-86
2022/11/14 00:04:30;;;;;;;;;;;10.90;89.00;;;;;;5053199;28;20027;-86
2022/11/14 00:06:56;;;;;;;;;;;11.00;89.10;;;;;;5053164;28;19939;-87
2022/11/14 00:09:27;;;;;;;;;;;10.90;89.10;;;;;;5053127;28;19957;-86
2022/11/14 00:11:53;;;;;;;;;;;10.90;89.00;;;;;;5053131;28;19985;-86
2022/11/14 00:14:18;;;;;;;;;;;11.00;89.00;;;;;;5053012;28;19958;-87
2022/11/14 00:16:44;;;;;;;;;;;10.90;89.00;;;;;;5053079;28;20038;-86
2022/11/14 00:19:10;;;;;;;;;;;11.00;89.00;;;;;;5053014;28;20027;-86
2022/11/14 00:21:35;;;;;;;;;;;11.00;89.00;;;;;;5053036;28;20310;-86
2022/11/14 00:24:01;;;;;;;;;;;11.00;89.10;;;;;;5052997;28;20335;-86
2022/11/14 00:26:26;;;;;;;;;;;11.00;89.10;;;;;;5052924;28;20418;-86
2022/11/14 00:28:53;;;;;;;;;;;11.00;89.10;;;;;;5052967;28;20001;-86
2022/11/14 00:31:18;;;;;;;;;;;11.00;89.20;;;;;;5052935;28;19939;-86
2022/11/14 00:33:44;;;;;;;;;;;10.90;89.30;;;;;;5052836;28;20103;-86
2022/11/14 00:36:09;;;;;;;;;;;10.90;89.40;;;;;;5052852;28;19977;-87
2022/11/14 00:38:35;;;;;;;;;;;10.90;89.50;;;;;;5052871;28;19994;-86
2022/11/14 00:41:00;;;;;;;;;;;10.90;89.50;;;;;;5052840;28;19943;-87
2022/11/14 00:43:26;;;;;;;;;;;10.90;89.60;;;;;;5052836;28;19943;-87
2022/11/14 00:45:51;;;;;;;;;;;10.90;89.60;;;;;;5052764;28;19948;-86
2022/11/14 00:48:17;;;;;;;;;;;10.90;89.70;;;;;;5052774;28;20290;-87
2022/11/14 00:50:43;;;;;;;;;;;10.90;89.80;;;;;;5052456;28;20070;-86
2022/11/14 00:53:08;;;;;;;;;;;10.90;89.80;;;;;;5052842;28;20033;-87
2022/11/14 00:55:34;;;;;;;;;;;10.90;89.80;;;;;;5052673;28;20393;-86
2022/11/14 00:57:59;;;;;;;;;;;11.00;89.80;;;;;;5052987;28;20005;-86
2022/11/14 01:00:25;;;;;;;;;;;10.90;89.80;;;;;;5056622;28;20609;-86
2022/11/14 01:02:50;;;;;;;;;;;10.90;89.80;;;;;;5056551;28;19939;-86
2022/11/14 01:05:16;;;;;;;;;;;11.00;89.90;;;;;;5056407;28;20386;-86
2022/11/14 01:07:41;;;;;;;;;;;10.90;90.00;;;;;;5056441;28;20314;-86
2022/11/14 01:10:07;;;;;;;;;;;10.90;90.10;;;;;;5056349;28;20394;-86
2022/11/14 01:12:33;;;;;;;;;;;10.90;90.20;;;;;;5056375;28;19944;-86
2022/11/14 01:14:59;;;;;;;;;;;10.90;90.30;;;;;;5056234;28;20303;-86
2022/11/14 01:17:27;;;;;;;;;;;10.90;90.40;;;;;;5056247;28;19950;-86
2022/11/14 01:19:53;;;;;;;;;;;10.90;90.50;;;;;;5056248;28;19942;-86
2022/11/14 01:22:18;;;;;;;;;;;10.90;90.50;;;;;;5056184;28;20025;-86
2022/11/14 01:24:44;;;;;;;;;;;10.90;90.50;;;;;;5056120;28;19984;-86
2022/11/14 01:27:10;;;;;;;;;;;10.90;90.60;;;;;;5056061;28;19945;-86
2022/11/14 01:29:35;;;;;;;;;;;10.90;90.60;;;;;;5056035;28;19961;-86
2022/11/14 01:32:01;;;;;;;;;;;10.90;90.80;;;;;;5055986;28;19944;-86
2022/11/14 01:34:28;;;;;;;;;;;11.00;90.80;;;;;;5055877;28;20057;-86
2022/11/14 01:36:53;;;;;;;;;;;11.00;90.80;;;;;;5055969;28;19962;-86
2022/11/14 01:39:19;;;;;;;;;;;11.00;90.80;;;;;;5055891;28;20025;-86
2022/11/14 01:41:44;;;;;;;;;;;11.00;90.70;;;;;;5056058;28;19948;-86
2022/11/14 01:44:11;;;;;;;;;;;10.90;90.70;;;;;;5055799;28;20420;-86
2022/11/14 01:46:39;;;;;;;;;;;10.90;90.70;;;;;;5055739;28;19942;-86
2022/11/14 01:49:07;;;;;;;;;;;10.90;90.80;;;;;;5055711;28;19937;-86
2022/11/14 01:51:36;;;;;;;;;;;10.90;90.80;;;;;;5055391;28;19978;-86
2022/11/14 01:54:04;;;;;;;;;;;10.90;90.90;;;;;;5055493;28;20525;-86
2022/11/14 01:56:36;;;;;;;;;;;10.90;91.00;;;;;;5055551;28;19985;-86
2022/11/14 01:59:03;;;;;;;;;;;10.90;91.00;;;;;;5055519;28;19938;-86
2022/11/14 02:01:31;;;;;;;;;;;10.90;91.10;;;;;;5055446;28;19990;-86
2022/11/14 02:03:58;;;;;;;;;;;10.90;91.10;;;;;;5055378;28;20468;-86
2022/11/14 02:06:26;;;;;;;;;;;10.90;91.10;;;;;;5055298;28;19991;-86
2022/11/14 02:08:52;;;;;;;;;;;10.90;91.10;;;;;;5055323;28;20028;-86
2022/11/14 02:11:18;;;;;;;;;;;10.90;91.20;;;;;;5054184;28;20199;-86
2022/11/14 02:13:43;;;;;;;;;;;10.90;91.20;;;;;;5055191;28;20107;-86
2022/11/14 02:16:09;;;;;;;;;;;10.90;91.30;;;;;;5055184;28;19980;-86
2022/11/14 02:18:35;;;;;;;;;;;10.90;91.20;;;;;;5055124;28;19993;-86
2022/11/14 02:21:00;;;;;;;;;;;10.90;91.30;;;;;;5055072;28;19988;-86
2022/11/14 02:23:27;;;;;;;;;;;10.90;91.50;;;;;;5055051;28;19938;-86
2022/11/14 02:25:53;;;;;;;;;;;10.90;91.50;;;;;;5054996;28;19936;-86
2022/11/14 02:28:20;;;;;;;;;;;11.00;91.60;;;;;;5053659;28;19952;-86
2022/11/14 02:30:46;;;;;;;;;;;10.90;91.80;;;;;;5054849;28;20437;-86
2022/11/14 02:33:11;;;;;;;;;;;10.90;91.90;;;;;;5054832;28;19938;-86
2022/11/14 02:35:37;;;;;;;;;;;11.00;92.10;;;;;;5054814;28;20360;-86
2022/11/14 02:38:02;;;;;;;;;;;10.90;92.10;;;;;;5054787;28;19946;-86
2022/11/14 02:40:28;;;;;;;;;;;11.00;92.10;;;;;;5054722;28;20055;-86
2022/11/14 02:42:53;;;;;;;;;;;11.10;92.00;;;;;;5054707;28;19939;-86
2022/11/14 02:45:19;;;;;;;;;;;11.10;91.50;;;;;;5054662;28;19937;-86
2022/11/14 02:47:45;;;;;;;;;;;11.10;91.10;;;;;;5054572;28;19946;-86
2022/11/14 02:50:11;;;;;;;;;;;11.10;90.70;;;;;;5054422;28;19940;-86
2022/11/14 02:52:36;;;;;;;;;;;11.20;90.60;;;;;;5054322;28;19962;-86
2022/11/14 02:55:02;;;;;;;;;;;11.20;90.50;;;;;;5054414;28;19962;-86
2022/11/14 02:57:28;;;;;;;;;;;11.10;90.60;;;;;;5054367;28;19948;-86
2022/11/14 02:59:53;;;;;;;;;;;11.10;90.60;;;;;;5054383;28;19936;-86
2022/11/14 03:02:19;;;;;;;;;;;11.20;90.50;;;;;;5054314;28;19941;-86
2022/11/14 03:04:44;;;;;;;;;;;11.20;90.50;;;;;;5054250;28;19950;-86
2022/11/14 03:07:10;;;;;;;;;;;11.20;90.50;;;;;;5054182;28;19943;-86
2022/11/14 03:09:35;;;;;;;;;;;11.20;90.50;;;;;;5054195;28;19938;-86
2022/11/14 03:12:01;;;;;;;;;;;11.30;90.30;;;;;;5054167;28;19966;-86
2022/11/14 03:14:29;;;;;;;;;;;11.30;90.10;;;;;;5053900;28;20013;-86
2022/11/14 03:16:54;;;;;;;;;;;11.20;90.00;;;;;;5054001;28;20416;-86
2022/11/14 03:19:20;;;;;;;;;;;11.20;90.00;;;;;;5054025;28;20004;-86
2022/11/14 03:21:45;;;;;;;;;;;11.20;90.10;;;;;;5054051;28;20035;-86
2022/11/14 03:24:11;;;;;;;;;;;11.10;90.20;;;;;;5053934;28;19986;-86
2022/11/14 03:26:37;;;;;;;;;;;11.10;90.30;;;;;;5053810;28;19948;-86
2022/11/14 03:29:03;;;;;;;;;;;11.10;90.40;;;;;;5053843;28;19937;-86
2022/11/14 03:31:28;;;;;;;;;;;11.10;90.40;;;;;;5053785;28;19942;-86
2022/11/14 03:33:54;;;;;;;;;;;11.10;90.50;;;;;;5053635;28;20431;-86
2022/11/14 03:36:19;;;;;;;;;;;11.10;90.40;;;;;;5053590;28;19950;-86
2022/11/14 03:38:45;;;;;;;;;;;11.10;90.50;;;;;;5053607;28;20402;-86
2022/11/14 03:41:10;;;;;;;;;;;11.10;90.60;;;;;;5053563;28;20315;-86
2022/11/14 03:43:36;;;;;;;;;;;11.10;90.80;;;;;;5053505;28;19984;-86
2022/11/14 03:46:02;;;;;;;;;;;11.10;90.90;;;;;;5053259;28;19945;-86
2022/11/14 03:48:28;;;;;;;;;;;11.00;91.00;;;;;;5053023;28;19938;-86
2022/11/14 03:50:54;;;;;;;;;;;11.00;90.90;;;;;;5053013;28;19987;-86
2022/11/14 03:53:19;;;;;;;;;;;10.90;90.80;;;;;;5053012;28;19942;-86
2022/11/14 03:55:45;;;;;;;;;;;10.90;90.90;;;;;;5051844;28;19954;-86
2022/11/14 03:58:10;;;;;;;;;;;10.90;91.00;;;;;;5052542;28;20429;-86
2022/11/14 04:00:36;;;;;;;;;;;10.90;91.10;;;;;;5051709;28;19985;-86
2022/11/14 04:03:02;;;;;;;;;;;10.90;91.20;;;;;;5052615;28;20382;-86
2022/11/14 04:05:27;;;;;;;;;;;10.90;91.20;;;;;;5051860;28;20449;-86
2022/11/14 04:07:53;;;;;;;;;;;10.80;91.20;;;;;;5052363;28;20395;-85
2022/11/14 04:10:18;;;;;;;;;;;10.80;91.20;;;;;;5052134;28;19942;-86
2022/11/14 04:12:48;;;;;;;;;;;10.80;91.10;;;;;;5051817;28;19948;-86
2022/11/14 04:15:14;;;;;;;;;;;10.90;91.00;;;;;;5034457;28;19963;-86
2022/11/14 04:17:39;;;;;;;;;;;10.90;91.10;;;;;;5050826;28;19946;-86
2022/11/14 04:20:05;;;;;;;;;;;10.90;91.00;;;;;;5052096;28;20524;-86
2022/11/14 04:22:31;;;;;;;;;;;10.90;90.90;;;;;;5051369;28;19944;-86
2022/11/14 04:24:56;;;;;;;;;;;10.90;90.80;;;;;;5052317;28;19982;-86
2022/11/14 04:27:22;;;;;;;;;;;10.90;90.70;;;;;;5052624;28;19982;-86
2022/11/14 04:29:47;;;;;;;;;;;10.90;90.60;;;;;;5052058;28;19952;-86
2022/11/14 04:32:13;;;;;;;;;;;10.90;90.60;;;;;;5052103;28;19946;-86
2022/11/14 04:34:38;;;;;;;;;;;10.90;90.90;;;;;;5056030;28;19961;-86
2022/11/14 04:37:04;;;;;;;;;;;10.80;91.20;;;;;;5038426;28;19954;-86
2022/11/14 04:39:29;;;;;;;;;;;10.80;91.30;;;;;;5056473;28;20362;-86
2022/11/14 04:41:55;;;;;;;;;;;10.80;91.30;;;;;;5056801;28;19951;-86
2022/11/14 04:44:20;;;;;;;;;;;10.80;91.10;;;;;;5056910;28;20032;-86
2022/11/14 04:46:46;;;;;;;;;;;10.80;91.10;;;;;;5039042;28;20095;-86
2022/11/14 04:49:12;;;;;;;;;;;10.80;90.90;;;;;;5056837;28;19946;-86
2022/11/14 04:51:37;;;;;;;;;;;10.80;90.80;;;;;;5056488;28;19976;-86
2022/11/14 04:54:03;;;;;;;;;;;10.80;90.80;;;;;;5056608;28;19967;-86
2022/11/14 04:56:28;;;;;;;;;;;10.80;90.90;;;;;;5056709;28;20393;-86
2022/11/14 04:58:54;;;;;;;;;;;10.70;91.00;;;;;;5056688;28;19969;-86
2022/11/14 05:01:19;;;;;;;;;;;10.70;91.10;;;;;;5056594;28;19984;-86
2022/11/14 05:03:45;;;;;;;;;;;10.70;91.30;;;;;;5056603;28;19990;-86
2022/11/14 05:06:10;;;;;;;;;;;10.70;91.30;;;;;;5056569;28;19938;-86
2022/11/14 05:08:36;;;;;;;;;;;10.80;91.20;;;;;;5056501;28;19939;-86
2022/11/14 05:11:01;;;;;;;;;;;10.80;91.10;;;;;;5056428;28;19946;-86
2022/11/14 05:13:27;;;;;;;;;;;10.80;91.10;;;;;;5056299;28;20352;-86
2022/11/14 05:15:53;;;;;;;;;;;10.90;90.80;;;;;;5056401;28;20560;-86
2022/11/14 05:18:18;;;;;;;;;;;10.90;90.70;;;;;;5056258;28;19946;-86
2022/11/14 05:20:44;;;;;;;;;;;10.90;90.70;;;;;;5056267;28;19940;-86
2022/11/14 05:23:17;;;;;;;;;;;10.90;90.90;;;;;;5056248;28;19944;-86
2022/11/14 05:25:42;;;;;;;;;;;10.90;90.80;;;;;;5056301;28;20311;-86
2022/11/14 05:28:08;;;;;;;;;;;10.90;90.80;;;;;;5056192;28;19973;-86
2022/11/14 05:30:33;;;;;;;;;;;10.90;90.70;;;;;;5056146;28;19948;-86
2022/11/14 05:32:59;;;;;;;;;;;10.90;90.70;;;;;;5056135;28;19946;-86
2022/11/14 05:35:25;;;;;;;;;;;10.90;90.90;;;;;;5056292;28;19962;-86
2022/11/14 05:37:50;;;;;;;;;;;10.90;91.00;;;;;;5056046;28;19943;-86
2022/11/14 05:40:17;;;;;;;;;;;10.90;90.90;;;;;;5055986;28;20404;-86
2022/11/14 05:42:43;;;;;;;;;;;10.90;91.00;;;;;;5055949;28;19940;-86
2022/11/14 05:45:09;;;;;;;;;;;10.90;90.90;;;;;;5055829;28;20463;-86
2022/11/14 05:47:35;;;;;;;;;;;10.90;90.80;;;;;;5055811;28;19937;-86
2022/11/14 05:50:01;;;;;;;;;;;10.80;90.90;;;;;;5055613;28;20424;-86
2022/11/14 05:52:26;;;;;;;;;;;10.90;90.90;;;;;;5055521;28;20005;-86
2022/11/14 05:54:52;;;;;;;;;;;10.90;90.80;;;;;;5055607;28;19967;-86
2022/11/14 05:57:17;;;;;;;;;;;10.90;90.90;;;;;;5055590;28;19942;-86
2022/11/14 05:59:43;;;;;;;;;;;11.00;90.60;;;;;;5055581;28;19938;-86
2022/11/14 06:02:08;;;;;;;;;;;11.00;90.30;;;;;;5054317;28;19947;-85
2022/11/14 06:04:34;;;;;;;;;;;10.90;90.30;;;;;;5052924;28;19951;-86
2022/11/14 06:06:59;;;;;;;;;;;11.00;90.30;;;;;;5054148;28;19946;-86
2022/11/14 06:09:25;;;;;;;;;;;10.90;90.30;;;;;;5054840;28;20400;-86
2022/11/14 06:11:50;;;;;;;;;;;11.00;90.20;;;;;;5054715;28;20375;-86
2022/11/14 06:14:16;;;;;;;;;;;11.00;90.10;;;;;;5055121;28;20058;-86
2022/11/14 06:16:41;;;;;;;;;;;11.00;90.00;;;;;;5054202;28;20335;-86
2022/11/14 06:19:07;;;;;;;;;;;11.10;90.00;;;;;;5054677;28;20026;-86
2022/11/14 06:21:32;;;;;;;;;;;11.10;89.80;;;;;;5054453;28;20387;-86
2022/11/14 06:23:58;;;;;;;;;;;11.10;89.70;;;;;;5054786;28;19975;-86
2022/11/14 06:26:25;;;;;;;;;;;11.10;89.50;;;;;;5054186;28;19944;-87
2022/11/14 06:28:51;;;;;;;;;;;11.10;89.50;;;;;;5054156;28;19943;-86
2022/11/14 06:31:17;;;;;;;;;;;11.20;89.40;;;;;;5053659;28;19950;-86
2022/11/14 06:33:43;;;;;;;;;;;11.10;89.50;;;;;;5054658;28;20060;-86
2022/11/14 06:36:08;;;;;;;;;;;11.20;89.50;;;;;;5035948;28;20487;-87
2022/11/14 06:38:35;;;;;;;;;;;11.20;89.30;;;;;;5054231;28;19953;-87
2022/11/14 06:41:21;;;;;;;;;;;11.20;89.20;;;;;;5053023;28;20074;-87
2022/11/14 06:43:47;;;;;;;;;;;11.30;89.00;;;;;;5048065;28;19944;-86
2022/11/14 06:46:15;;;;;;;;;;;11.30;89.10;;;;;;5054669;28;19945;-86
2022/11/14 06:48:41;;;;;;;;;;;11.40;89.10;;;;;;5054610;28;19935;-87
2022/11/14 06:51:07;;;;;;;;;;;11.40;89.00;;;;;;5053729;28;20473;-87
2022/11/14 06:53:33;;;;;;;;;;;11.40;89.10;;;;;;5052983;28;19947;-86
2022/11/14 06:56:19;;;;;;;;;;;11.40;88.50;;;;;;5053239;28;20026;-87
2022/11/14 06:58:46;;;;;;;;;;;11.40;88.60;;;;;;5052945;28;19948;-87
2022/11/14 07:01:17;;;;;;;;;;;11.50;88.80;;;;;;5042849;28;19947;-86
2022/11/14 07:03:43;;;;;;;;;;;11.70;88.70;;;;;;5050903;28;19945;-87
2022/11/14 07:06:10;;;;;;;;;;;11.90;88.20;;;;;;5051618;28;19959;-87
2022/11/14 07:08:35;;;;;;;;;;;12.10;87.60;;;;;;5048352;28;19953;-88
2022/11/14 07:11:02;;;;;;;;;;;12.30;87.00;;;;;;5053750;28;19944;-87
2022/11/14 07:13:28;;;;;;;;;;;12.40;86.40;;;;;;5052856;28;19953;-87
2022/11/14 07:15:54;;;;;;;;;;;12.40;85.60;;;;;;5052294;28;19939;-87
2022/11/14 07:18:20;;;;;;;;;;;12.30;85.40;;;;;;5034675;28;20317;-87
2022/11/14 07:20:45;;;;;;;;;;;12.10;86.60;;;;;;5051582;28;19976;-87
2022/11/14 07:23:11;;;;;;;;;;;12.10;86.70;;;;;;5052116;28;19958;-87
2022/11/14 07:25:36;;;;;;;;;;;11.90;87.80;;;;;;5053605;28;20361;-87
2022/11/14 07:28:02;;;;;;;;;;;11.80;88.20;;;;;;5051308;28;19957;-87
2022/11/14 07:30:28;;;;;;;;;;;11.70;88.70;;;;;;5033240;28;19972;-87
2022/11/14 07:32:54;;;;;;;;;;;11.60;89.00;;;;;;5035462;28;19998;-87
2022/11/14 07:35:20;;;;;;;;;;;11.80;89.30;;;;;;5051944;28;20063;-87
2022/11/14 07:37:45;;;;;;;;;;;11.90;89.30;;;;;;5052984;28;20001;-87
2022/11/14 07:40:11;;;;;;;;;;;12.30;88.80;;;;;;5049131;28;19949;-87
2022/11/14 07:42:37;;;;;;;;;;;12.50;87.60;;;;;;5050525;28;19941;-87
2022/11/14 07:45:02;;;;;;;;;;;12.60;86.40;;;;;;5049126;28;19949;-87
2022/11/14 07:47:28;;;;;;;;;;;12.40;86.00;;;;;;5052170;28;19949;-87
2022/11/14 07:49:53;;;;;;;;;;;12.40;86.60;;;;;;5051561;28;19944;-87
2022/11/14 07:52:19;;;;;;;;;;;12.30;87.00;;;;;;5089050;23;19983;-87
2022/11/14 07:54:44;;;;;;;;;;;12.30;87.20;;;;;;5071058;28;19965;-87
2022/11/14 07:57:10;;;;;;;;;;;12.40;87.60;;;;;;5070482;28;19944;-87
2022/11/14 07:59:36;;;;;;;;;;;12.60;87.00;;;;;;5074778;28;19981;-87
2022/11/14 08:02:01;;;;;;;;;;;12.70;86.40;;;;;;5071290;28;19979;-87
2022/11/14 08:04:26;;;;;;;;;;;12.80;85.80;;;;;;5070386;28;20027;-87
2022/11/14 08:06:52;;;;;;;;;;;12.80;85.60;;;;;;5072549;28;20408;-87
2022/11/14 08:09:18;;;;;;;;;;;12.70;85.70;;;;;;5072005;28;19941;-87
2022/11/14 08:11:49;;;;;;;;;;;12.70;86.00;;;;;;5078206;28;19948;-86
2022/11/14 08:14:15;;;;;;;;;;;12.60;86.50;;;;;;5083513;28;19964;-87
2022/11/14 08:16:40;;;;;;;;;;;12.70;86.80;;;;;;5072672;28;19942;-87
2022/11/14 08:19:06;;;;;;;;;;;12.90;86.70;;;;;;5078093;28;20454;-87
2022/11/14 08:21:32;;;;;;;;;;;13.00;86.00;;;;;;5090622;28;19945;-87
2022/11/14 08:23:57;;;;;;;;;;;13.30;85.80;;;;;;5090242;28;19944;-88
2022/11/14 08:26:23;;;;;;;;;;;13.40;85.40;;;;;;5076353;28;19942;-87
2022/11/14 08:28:52;;;;;;;;;;;13.50;83.80;;;;;;5069332;28;20453;-87
2022/11/14 08:31:18;;;;;;;;;;;13.60;82.90;;;;;;5071169;28;20419;-87
2022/11/14 08:33:44;;;;;;;;;;;13.60;83.00;;;;;;5071479;28;19964;-87
2022/11/14 08:36:10;;;;;;;;;;;13.60;82.50;;;;;;5071036;28;20399;-87
2022/11/14 08:38:36;;;;;;;;;;;13.60;81.80;;;;;;5071883;28;20584;-87
2022/11/14 08:41:02;;;;;;;;;;;13.60;81.70;;;;;;5072729;28;20461;-87
2022/11/14 08:43:28;;;;;;;;;;;13.90;81.30;;;;;;5072948;28;19942;-87
2022/11/14 08:45:58;;;;;;;;;;;14.10;80.60;;;;;;5083570;28;20398;-87
2022/11/14 08:48:23;;;;;;;;;;;14.30;79.30;;;;;;5072049;28;19972;-87
2022/11/14 08:50:49;;;;;;;;;;;14.40;79.00;;;;;;5079646;28;19948;-87
2022/11/14 08:53:14;;;;;;;;;;;14.40;79.50;;;;;;5070977;28;19946;-87
2022/11/14 08:55:43;;;;;;;;;;;14.40;79.30;;;;;;5071347;28;20067;-87
2022/11/14 08:58:09;;;;;;;;;;;14.50;79.00;;;;;;5071931;28;19956;-87
2022/11/14 09:00:34;;;;;;;;;;;14.50;78.80;;;;;;5070562;28;19960;-86
2022/11/14 09:03:00;;;;;;;;;;;14.30;78.80;;;;;;5064116;28;19959;-88
2022/11/14 09:05:25;;;;;;;;;;;14.10;79.80;;;;;;5073343;28;19965;-93
2022/11/14 09:07:51;;;;;;;;;;;13.90;79.20;;;;;;5073054;28;20390;-93
2022/11/14 09:10:16;;;;;;;;;;;14.00;79.20;;;;;;5071867;28;19984;-93
2022/11/14 09:12:42;;;;;;;;;;;14.20;78.80;;;;;;5072778;28;20052;-93
2022/11/14 09:15:08;;;;;;;;;;;14.20;79.20;;;;;;5072962;28;19967;-93
2022/11/14 09:17:34;;;;;;;;;;;14.40;77.30;;;;;;5072913;28;19941;-93
2022/11/14 09:19:59;;;;;;;;;;;14.50;76.60;;;;;;5075042;28;19942;-93
2022/11/14 09:22:25;;;;;;;;;;;14.50;76.70;;;;;;5076507;28;19994;-93
2022/11/14 09:24:51;;;;;;;;;;;14.40;78.00;;;;;;5086864;28;20313;-93
2022/11/14 09:27:17;;;;;;;;;;;14.50;77.00;;;;;;5077928;28;20327;-93
2022/11/14 09:29:42;;;;;;;;;;;14.50;77.10;;;;;;5076593;28;19940;-93
2022/11/14 09:32:08;;;;;;;;;;;14.60;76.90;;;;;;5076173;28;20673;-94
2022/11/14 09:34:34;;;;;;;;;;;14.80;76.10;;;;;;5074635;28;20424;-93
2022/11/14 09:36:59;;;;;;;;;;;14.80;76.00;;;;;;5075504;28;19943;-93
2022/11/14 09:39:25;;;;;;;;;;;14.60;76.30;;;;;;5076087;28;20039;-93
2022/11/14 09:41:55;;;;;;;;;;;14.60;77.20;;;;;;5075956;28;20025;-93
2022/11/14 09:44:24;;;;;;;;;;;14.70;76.90;;;;;;5082725;28;19949;-93
2022/11/14 09:46:55;;;;;;;;;;;14.70;76.20;;;;;;5096385;28;20277;-94
2022/11/14 09:49:33;;;;;;;;;;;14.80;76.00;;;;;;5081145;28;20428;-93
2022/11/14 09:52:02;;;;;;;;;;;14.90;75.60;;;;;;5074940;28;19977;-93
2022/11/14 09:54:33;;;;;;;;;;;15.20;75.10;;;;;;5076166;28;19967;-94
2022/11/14 09:56:59;;;;;;;;;;;15.40;74.20;;;;;;5075494;28;20005;-93
2022/11/14 09:59:25;;;;;;;;;;;15.50;73.60;;;;;;5075209;28;19988;-93
2022/11/14 10:02:05;;;;;;;;;;;15.60;73.40;;;;;;5074760;28;19943;-93
2022/11/14 10:04:42;;;;;;;;;;;15.60;74.00;;;;;;5073928;28;20007;-93
2022/11/14 10:07:14;;;;;;;;;;;15.70;74.10;;;;;;5075959;28;19937;-94
2022/11/14 10:09:58;;;;;;;;;;;15.80;73.70;;;;;;5075896;28;19949;-93
2022/11/14 10:12:34;;;;;;;;;;;15.60;73.20;;;;;;5076047;28;19976;-94
2022/11/14 10:15:15;;;;;;;;;;;15.60;74.10;;;;;;5075699;28;19961;-94
2022/11/14 10:17:44;;;;;;;;;;;15.40;74.50;;;;;;5075695;28;19982;-93
2022/11/14 10:20:13;;;;;;;;;;;15.10;75.30;;;;;;5075689;28;19940;-94
2022/11/14 10:22:57;;;;;;;;;;;15.00;76.10;;;;;;5075576;28;19941;-93
2022/11/14 10:25:25;;;;;;;;;;;14.90;76.50;;;;;;5075607;28;19944;-92
2022/11/14 10:27:56;;;;;;;;;;;15.00;76.40;;;;;;5075495;28;19943;-93
2022/11/14 10:30:22;;;;;;;;;;;15.30;75.70;;;;;;5075557;28;19939;-94
2022/11/14 10:33:06;;;;;;;;;;;15.00;75.00;;;;;;5081729;28;19946;-94
2022/11/14 10:35:48;;;;;;;;;;;15.30;75.30;;;;;;5094169;28;20389;-95
2022/11/14 10:38:13;;;;;;;;;;;15.40;74.50;;;;;;5094457;28;19968;-94
2022/11/14 10:40:46;;;;;;;;;;;15.60;74.20;;;;;;5097451;28;19939;-94
2022/11/14 10:43:15;;;;;;;;;;;15.60;72.60;;;;;;5088041;28;19949;-94
2022/11/14 10:45:43;;;;;;;;;;;15.70;72.70;;;;;;5095324;28;20000;-94
2022/11/14 10:48:14;;;;;;;;;;;15.70;72.10;;;;;;5094154;28;19962;-94
2022/11/14 10:50:40;;;;;;;;;;;15.70;72.40;;;;;;5094299;28;20037;-95
2022/11/14 10:53:11;;;;;;;;;;;15.60;72.20;;;;;;5089799;28;19948;-94
2022/11/14 10:55:36;;;;;;;;;;;15.20;74.60;;;;;;5086384;28;19968;-94
2022/11/14 10:58:07;;;;;;;;;;;14.90;74.60;;;;;;5083757;28;19939;-94
2022/11/14 11:00:33;;;;;;;;;;;14.90;74.40;;;;;;5076602;28;20029;-94
2022/11/14 11:02:58;;;;;;;;;;;15.10;74.60;;;;;;5076522;28;19989;-95
2022/11/14 11:05:28;;;;;;;;;;;15.40;73.10;;;;;;5076374;28;19946;-95
2022/11/14 11:13:30;;;;;;;;;;;16.10;71.00;;;;;;5075829;28;20161;-94
2022/11/14 11:15:57;;;;;;;;;;;16.20;69.80;;;;;;5075669;28;20147;-95
2022/11/14 11:18:26;;;;;;;;;;;16.30;69.10;;;;;;5074809;28;20301;-95
2022/11/14 11:21:04;;;;;;;;;;;16.20;69.70;;;;;;5075315;28;19998;-95
2022/11/14 11:23:29;;;;;;;;;;;16.30;69.60;;;;;;5075201;28;20381;-95
2022/11/14 11:26:15;;;;;;;;;;;16.10;69.60;;;;;;5075071;28;19940;-95
2022/11/14 11:28:40;;;;;;;;;;;16.10;71.00;;;;;;5074382;28;20036;-95
2022/11/14 11:31:07;;;;;;;;;;;16.30;70.50;;;;;;5076785;28;20046;-95
2022/11/14 11:33:33;;;;;;;;;;;16.40;69.40;;;;;;5077499;28;19939;-95
2022/11/14 11:36:02;;;;;;;;;;;16.40;68.40;;;;;;5078017;28;20412;-95
2022/11/14 11:38:28;;;;;;;;;;;16.10;70.50;;;;;;5076123;28;19939;-96
2022/11/14 11:40:59;;;;;;;;;;;16.10;70.50;;;;;;5076357;28;19945;-95
2022/11/14 11:43:43;;;;;;;;;;;16.10;70.10;;;;;;5076665;28;19943;-95
2022/11/14 11:46:13;;;;;;;;;;;16.00;69.50;;;;;;5077187;28;20399;-95
2022/11/14 11:48:39;;;;;;;;;;;16.00;70.60;;;;;;5076055;28;20021;-95
2022/11/14 11:51:06;;;;;;;;;;;16.20;69.40;;;;;;5075642;28;19976;-95
2022/11/14 11:53:38;;;;;;;;;;;16.40;68.10;;;;;;5074328;28;19942;-95
2022/11/14 11:56:06;;;;;;;;;;;16.60;67.70;;;;;;5074882;28;19939;-95
2022/11/14 11:58:36;;;;;;;;;;;16.60;68.60;;;;;;5074482;28;19939;-94
2022/11/14 12:01:01;;;;;;;;;;;16.70;68.90;;;;;;5074328;28;20405;-95
2022/11/14 12:03:27;;;;;;;;;;;16.80;69.10;;;;;;5079569;28;19962;-95
2022/11/14 12:05:53;;;;;;;;;;;17.10;68.00;;;;;;5086596;28;19939;-96
2022/11/14 12:08:37;;;;;;;;;;;17.40;66.30;;;;;;5081071;28;19938;-96
2022/11/14 12:11:05;;;;;;;;;;;17.30;65.70;;;;;;5077734;28;19948;-96
2022/11/14 12:13:34;;;;;;;;;;;17.30;66.50;;;;;;5076341;28;19944;-95
2022/11/14 12:16:17;;;;;;;;;;;17.30;67.40;;;;;;5074347;28;19942;-95
2022/11/14 12:18:52;;;;;;;;;;;17.20;67.30;;;;;;5074421;28;19943;-95
2022/11/14 12:21:21;;;;;;;;;;;16.90;67.80;;;;;;5074240;28;20450;-95
2022/11/14 12:23:52;;;;;;;;;;;16.80;67.90;;;;;;5080858;28;19977;-96
2022/11/14 12:26:27;;;;;;;;;;;16.80;68.60;;;;;;5076480;28;19945;-95
2022/11/14 12:28:58;;;;;;;;;;;16.90;68.70;;;;;;5077682;28;19938;-96
2022/11/14 12:31:25;;;;;;;;;;;17.00;68.40;;;;;;5079029;28;19944;-96
2022/11/14 12:33:54;;;;;;;;;;;17.00;68.40;;;;;;5075175;28;19981;-95
2022/11/14 12:36:26;;;;;;;;;;;17.10;68.10;;;;;;5084378;28;19939;-95
2022/11/14 12:38:52;;;;;;;;;;;17.10;67.90;;;;;;5083637;28;20401;-95
2022/11/14 12:41:38;;;;;;;;;;;17.10;68.40;;;;;;5085911;28;19941;-96
2022/11/14 12:44:22;;;;;;;;;;;17.20;68.40;;;;;;5083783;28;19954;-96
2022/11/14 12:47:03;;;;;;;;;;;17.20;68.00;;;;;;5082111;28;20042;-95
2022/11/14 12:49:38;;;;;;;;;;;17.30;68.10;;;;;;5078205;28;19947;-96
2022/11/14 12:52:04;;;;;;;;;;;17.30;67.80;;;;;;5074633;28;20047;-95
2022/11/14 12:54:41;;;;;;;;;;;17.30;68.50;;;;;;5074533;28;20498;-95
2022/11/14 12:57:46;;;;;;;;;;;17.30;68.70;;;;;;5077859;28;19946;-95
2022/11/14 13:00:00;;;;;;;;;;;17.40;68.40;;;;;;5077410;28;19939;-95
2022/11/14 13:02:26;;;;;;;;;;;17.40;67.10;;;;;;5079421;28;19947;-95
2022/11/14 13:05:21;;;;;;;;;;;17.20;67.60;;;;;;5084296;28;19939;-95
2022/11/14 13:08:01;;;;;;;;;;;17.30;67.90;;;;;;5079093;28;19974;-95
2022/11/14 13:10:37;;;;;;;;;;;17.50;67.10;;;;;;5087573;28;19952;-95
2022/11/14 13:22:15;;;;;;;;;;;17.00;69.00;;;;;;5093398;28;19961;-96
2022/11/14 13:25:02;;;;;;;;;;;16.90;70.00;;;;;;5093130;28;19937;-95
2022/11/14 13:27:29;;;;;;;;;;;17.00;69.90;;;;;;5097643;28;19943;-94
2022/11/14 13:29:56;;;;;;;;;;;17.00;69.90;;;;;;5093692;28;19940;-96
2022/11/14 13:32:40;;;;;;;;;;;17.10;69.40;;;;;;5094997;28;19984;-95
2022/11/14 13:35:24;;;;;;;;;;;17.30;69.10;;;;;;5089953;28;19956;-95
2022/11/14 13:37:49;;;;;;;;;;;17.70;67.10;;;;;;5091967;28;20024;-95
2022/11/14 13:40:27;;;;;;;;;;;17.90;66.30;;;;;;5095329;28;19956;-94
2022/11/14 13:43:05;;;;;;;;;;;18.10;65.80;;;;;;5095772;28;19930;-95
2022/11/14 13:45:34;;;;;;;;;;;18.20;65.00;;;;;;5095209;28;19938;-94
2022/11/14 13:48:14;;;;;;;;;;;18.10;64.90;;;;;;5096229;28;19974;-95
2022/11/14 13:50:41;;;;;;;;;;;17.80;65.80;;;;;;5090347;28;19984;-94
2022/11/14 13:53:19;;;;;;;;;;;17.50;67.30;;;;;;5082826;28;19928;-95
2022/11/14 13:55:48;;;;;;;;;;;17.30;67.90;;;;;;5089138;28;19941;-96
2022/11/14 13:58:23;;;;;;;;;;;17.10;69.30;;;;;;5093146;28;20009;-96
2022/11/14 14:00:58;;;;;;;;;;;17.00;69.90;;;;;;5094426;28;20045;-96
2022/11/14 14:03:26;;;;;;;;;;;16.90;70.30;;;;;;5094159;28;20383;-95
2022/11/14 14:06:06;;;;;;;;;;;16.80;70.00;;;;;;5083104;28;19947;-96
2022/11/14 14:08:50;;;;;;;;;;;16.70;70.30;;;;;;5070782;28;20417;-96
2022/11/14 14:11:24;;;;;;;;;;;16.60;70.80;;;;;;5082293;28;19954;-96
2022/11/14 14:13:53;;;;;;;;;;;16.40;70.70;;;;;;5090301;28;19933;-96
2022/11/14 14:16:44;;;;;;;;;;;16.40;71.10;;;;;;5085899;28;19939;-95
2022/11/14 14:19:45;;;;;;;;;;;16.40;71.50;;;;;;5075465;28;20040;-95
2022/11/14 14:22:14;;;;;;;;;;;16.40;71.70;;;;;;5065137;28;19942;-95
2022/11/14 14:24:45;;;;;;;;;;;16.30;72.40;;;;;;5082420;28;19948;-95
2022/11/14 14:27:23;;;;;;;;;;;16.30;72.30;;;;;;5091562;28;19942;-94
2022/11/14 14:30:00;;;;;;;;;;;16.30;72.90;;;;;;5083981;28;19950;-95
2022/11/14 14:32:26;;;;;;;;;;;16.30;71.90;;;;;;5086438;28;20028;-95
2022/11/14 14:34:55;;;;;;;;;;;16.40;72.10;;;;;;5079372;28;20008;-95
2022/11/14 14:37:23;;;;;;;;;;;16.40;71.70;;;;;;5077954;28;19937;-95